Time;durP1;ratioP1;P1;durP2;ratioP2;P2;SDS_P1;SDS_P2;PMS_P1;PMS_P2;Temp;Humidity;BMP_temperature;BMP_pressure;BME280_temperature;BME280_humidity;BME280_pressure;Samples;Min_cycle;Max_cycle;Signal;HPM_P1;HPM_P2
2024/01/07 00:01:24;;;;;;;;;;;4.80;99.90;;;;;;5021386;28;19910;-62
2024/01/07 00:03:51;;;;;;;;;;;4.80;99.90;;;;;;5030229;28;19912;-62
2024/01/07 00:06:16;;;;;;;;;;;4.80;99.90;;;;;;5029736;28;19932;-62
2024/01/07 00:08:42;;;;;;;;;;;4.80;99.90;;;;;;5022187;28;20429;-62
2024/01/07 00:11:07;;;;;;;;;;;4.80;99.90;;;;;;5021539;28;20322;-62
2024/01/07 00:13:33;;;;;;;;;;;4.80;99.90;;;;;;5022484;28;19917;-62
2024/01/07 00:15:58;;;;;;;;;;;4.80;99.90;;;;;;5019806;28;19920;-62
2024/01/07 00:18:24;;;;;;;;;;;4.80;99.90;;;;;;5037517;28;19913;-62
2024/01/07 00:20:50;;;;;;;;;;;4.80;99.90;;;;;;5007705;28;19914;-62
2024/01/07 00:23:15;;;;;;;;;;;4.70;99.90;;;;;;5021933;28;19939;-62
2024/01/07 00:25:41;;;;;;;;;;;4.80;99.90;;;;;;5022424;28;19949;-62
2024/01/07 00:28:06;;;;;;;;;;;4.80;99.90;;;;;;5013380;28;19915;-62
2024/01/07 00:30:32;;;;;;;;;;;4.70;99.90;;;;;;5021635;28;19925;-62
2024/01/07 00:32:57;;;;;;;;;;;4.70;99.90;;;;;;5020647;28;20147;-62
2024/01/07 00:35:23;;;;;;;;;;;4.80;99.90;;;;;;5018620;28;20330;-62
2024/01/07 00:37:48;;;;;;;;;;;4.70;99.90;;;;;;5033902;28;20653;-62
2024/01/07 00:40:14;;;;;;;;;;;4.80;99.90;;;;;;5027398;28;20249;-62
2024/01/07 00:42:39;;;;;;;;;;;4.70;99.90;;;;;;5030226;28;19913;-62
2024/01/07 00:45:05;;;;;;;;;;;4.80;99.90;;;;;;5029800;28;19913;-62
2024/01/07 00:47:30;;;;;;;;;;;4.70;99.90;;;;;;5021465;28;19913;-62
2024/01/07 00:49:56;;;;;;;;;;;4.70;99.90;;;;;;5021333;28;19909;-62
2024/01/07 00:52:23;;;;;;;;;;;4.70;99.90;;;;;;5019070;28;19917;-62
2024/01/07 00:54:48;;;;;;;;;;;4.70;99.90;;;;;;5021962;28;19917;-62
2024/01/07 00:57:14;;;;;;;;;;;4.70;99.90;;;;;;5029981;28;20020;-62
2024/01/07 00:59:39;;;;;;;;;;;4.70;99.90;;;;;;5021980;28;20612;-62
2024/01/07 01:02:05;;;;;;;;;;;4.70;99.90;;;;;;5013429;28;19914;-62
2024/01/07 01:04:30;;;;;;;;;;;4.70;99.90;;;;;;5024195;28;19917;-62
2024/01/07 01:06:56;;;;;;;;;;;4.70;99.90;;;;;;5028292;28;20502;-62
2024/01/07 01:09:21;;;;;;;;;;;4.70;99.90;;;;;;5024293;28;19999;-62
2024/01/07 01:11:47;;;;;;;;;;;4.70;99.90;;;;;;5024821;28;19986;-62
2024/01/07 01:14:12;;;;;;;;;;;4.70;99.90;;;;;;5025101;28;20008;-62
2024/01/07 01:16:38;;;;;;;;;;;4.70;99.90;;;;;;5021597;28;20609;-62
2024/01/07 01:19:04;;;;;;;;;;;4.70;99.90;;;;;;5021411;28;20016;-62
2024/01/07 01:21:29;;;;;;;;;;;4.70;99.90;;;;;;5029409;28;19921;-62
2024/01/07 01:23:55;;;;;;;;;;;4.70;99.90;;;;;;5030407;28;19924;-62
2024/01/07 01:26:20;;;;;;;;;;;4.70;99.90;;;;;;5033611;28;19939;-62
2024/01/07 01:28:46;;;;;;;;;;;4.70;99.90;;;;;;5025962;28;19909;-62
2024/01/07 01:31:14;;;;;;;;;;;4.70;99.90;;;;;;5023921;28;20457;-62
2024/01/07 01:33:40;;;;;;;;;;;4.70;99.90;;;;;;5041388;28;20618;-62
2024/01/07 01:36:06;;;;;;;;;;;4.70;99.90;;;;;;5022667;28;19957;-62
2024/01/07 01:38:32;;;;;;;;;;;4.60;99.90;;;;;;5029736;28;19951;-62
2024/01/07 01:40:57;;;;;;;;;;;4.70;99.90;;;;;;5020316;28;20097;-62
2024/01/07 01:43:26;;;;;;;;;;;4.70;99.90;;;;;;5037427;28;19999;-62
2024/01/07 01:45:53;;;;;;;;;;;4.70;99.90;;;;;;5029564;28;19970;-62
2024/01/07 01:48:18;;;;;;;;;;;4.70;99.90;;;;;;4996334;28;19968;-62
2024/01/07 01:50:44;;;;;;;;;;;4.60;99.90;;;;;;5015011;28;19986;-62
2024/01/07 01:53:09;;;;;;;;;;;4.70;99.90;;;;;;5021150;28;19938;-62
2024/01/07 01:55:35;;;;;;;;;;;4.70;99.90;;;;;;5029639;28;19945;-62
2024/01/07 01:58:03;;;;;;;;;;;4.70;99.90;;;;;;5029414;28;19913;-62
2024/01/07 02:00:29;;;;;;;;;;;4.60;99.90;;;;;;5021053;28;19913;-62
2024/01/07 02:02:55;;;;;;;;;;;4.60;99.90;;;;;;5028667;28;19913;-62
2024/01/07 02:05:20;;;;;;;;;;;4.60;99.90;;;;;;5028878;28;19938;-62
2024/01/07 02:07:46;;;;;;;;;;;4.60;99.90;;;;;;5028840;28;20275;-62
2024/01/07 02:10:12;;;;;;;;;;;4.70;99.90;;;;;;5029581;28;20012;-62
2024/01/07 02:12:37;;;;;;;;;;;4.60;99.90;;;;;;5021566;28;20431;-62
2024/01/07 02:15:03;;;;;;;;;;;4.60;99.90;;;;;;5012528;28;20028;-62
2024/01/07 02:17:29;;;;;;;;;;;4.60;99.90;;;;;;5027749;28;19909;-62
2024/01/07 02:19:54;;;;;;;;;;;4.60;99.90;;;;;;5029019;28;20639;-62
2024/01/07 02:22:20;;;;;;;;;;;4.60;99.90;;;;;;5021019;28;20370;-62
2024/01/07 02:24:45;;;;;;;;;;;4.60;99.90;;;;;;5021292;28;19913;-62
2024/01/07 02:27:11;;;;;;;;;;;4.60;99.90;;;;;;5029286;28;20175;-62
2024/01/07 02:29:36;;;;;;;;;;;4.60;99.90;;;;;;5026714;28;19927;-62
2024/01/07 02:32:02;;;;;;;;;;;4.60;99.90;;;;;;5020994;28;19921;-62
2024/01/07 02:34:28;;;;;;;;;;;4.60;99.90;;;;;;5025815;28;20350;-62
2024/01/07 02:36:53;;;;;;;;;;;4.60;99.90;;;;;;5024043;28;20642;-62
2024/01/07 02:39:19;;;;;;;;;;;4.60;99.90;;;;;;5026557;28;19913;-62
2024/01/07 02:41:44;;;;;;;;;;;4.60;99.90;;;;;;5020636;28;19947;-62
2024/01/07 02:44:10;;;;;;;;;;;4.60;99.90;;;;;;5023002;28;19935;-62
2024/01/07 02:46:35;;;;;;;;;;;4.60;99.90;;;;;;5016457;28;19920;-62
2024/01/07 02:49:01;;;;;;;;;;;4.60;99.90;;;;;;5028629;28;20190;-62
2024/01/07 02:51:26;;;;;;;;;;;4.60;99.90;;;;;;5024368;28;19920;-62
2024/01/07 02:53:52;;;;;;;;;;;4.50;99.90;;;;;;5032275;28;19948;-62
2024/01/07 02:56:17;;;;;;;;;;;4.60;99.90;;;;;;5028519;28;20000;-62
2024/01/07 02:58:43;;;;;;;;;;;4.60;99.90;;;;;;5036154;28;20069;-62
2024/01/07 03:01:09;;;;;;;;;;;4.60;99.90;;;;;;5028082;28;19971;-62
2024/01/07 03:03:35;;;;;;;;;;;4.60;99.90;;;;;;5029068;28;19990;-62
2024/01/07 03:06:00;;;;;;;;;;;4.60;99.90;;;;;;5028602;28;19980;-62
2024/01/07 03:08:27;;;;;;;;;;;4.60;99.90;;;;;;5020456;28;19916;-62
2024/01/07 03:10:53;;;;;;;;;;;4.50;99.90;;;;;;5020071;28;19920;-62
2024/01/07 03:13:19;;;;;;;;;;;4.50;99.90;;;;;;5036679;28;19909;-62
2024/01/07 03:15:44;;;;;;;;;;;4.50;99.90;;;;;;5026526;28;20442;-62
2024/01/07 03:18:09;;;;;;;;;;;4.50;99.90;;;;;;5032704;28;19909;-62
2024/01/07 03:20:35;;;;;;;;;;;4.50;99.90;;;;;;5035122;28;19981;-62
2024/01/07 03:23:01;;;;;;;;;;;4.50;99.90;;;;;;5026586;28;20000;-62
2024/01/07 03:25:26;;;;;;;;;;;4.50;99.90;;;;;;5030687;28;19919;-62
2024/01/07 03:27:52;;;;;;;;;;;4.50;99.90;;;;;;5023918;28;19949;-62
2024/01/07 03:30:17;;;;;;;;;;;4.50;99.90;;;;;;5022725;28;19970;-62
2024/01/07 03:32:43;;;;;;;;;;;4.50;99.90;;;;;;5031823;28;19929;-62
2024/01/07 03:35:08;;;;;;;;;;;4.50;99.90;;;;;;5031208;28;19936;-62
2024/01/07 03:37:34;;;;;;;;;;;4.50;99.90;;;;;;5031562;28;19913;-62
2024/01/07 03:39:59;;;;;;;;;;;4.50;99.90;;;;;;5022871;28;19913;-62
2024/01/07 03:42:25;;;;;;;;;;;4.50;99.90;;;;;;5016495;28;20277;-62
2024/01/07 03:44:50;;;;;;;;;;;4.50;99.90;;;;;;5034765;28;19954;-62
2024/01/07 03:47:16;;;;;;;;;;;4.50;99.90;;;;;;5034413;28;19909;-62
2024/01/07 03:49:42;;;;;;;;;;;4.50;99.90;;;;;;5025304;28;19917;-62
2024/01/07 03:52:07;;;;;;;;;;;4.50;99.90;;;;;;5022791;28;19962;-62
2024/01/07 03:54:33;;;;;;;;;;;4.50;99.90;;;;;;5029722;28;19921;-62
2024/01/07 03:56:59;;;;;;;;;;;4.50;99.90;;;;;;5022322;28;19914;-62
2024/01/07 03:59:25;;;;;;;;;;;4.50;99.90;;;;;;5027206;28;19913;-62
2024/01/07 04:01:53;;;;;;;;;;;4.50;99.90;;;;;;5032703;28;20013;-62
2024/01/07 04:04:18;;;;;;;;;;;4.50;99.90;;;;;;5022864;28;19913;-62
2024/01/07 04:06:44;;;;;;;;;;;4.40;99.90;;;;;;5031113;28;19917;-62
2024/01/07 04:09:09;;;;;;;;;;;4.40;99.90;;;;;;5022761;28;19913;-62
2024/01/07 04:11:41;;;;;;;;;;;4.40;99.90;;;;;;5022742;28;19920;-62
2024/01/07 04:14:07;;;;;;;;;;;4.40;99.90;;;;;;5022273;28;19917;-62
2024/01/07 04:16:33;;;;;;;;;;;4.40;99.90;;;;;;5023398;28;19920;-62
2024/01/07 04:18:58;;;;;;;;;;;4.40;99.90;;;;;;5022309;28;20070;-62
2024/01/07 04:21:24;;;;;;;;;;;4.40;99.90;;;;;;5029857;28;20095;-62
2024/01/07 04:23:49;;;;;;;;;;;4.40;99.90;;;;;;5004846;28;19966;-62
2024/01/07 04:26:15;;;;;;;;;;;4.40;99.90;;;;;;5021740;28;20391;-62
2024/01/07 04:28:41;;;;;;;;;;;4.40;99.90;;;;;;5022577;28;20460;-62
2024/01/07 04:31:06;;;;;;;;;;;4.40;99.90;;;;;;5038020;28;20462;-62
2024/01/07 04:33:32;;;;;;;;;;;4.40;99.90;;;;;;5034230;28;20016;-62
2024/01/07 04:35:59;;;;;;;;;;;4.40;99.90;;;;;;5034108;28;20000;-62
2024/01/07 04:38:24;;;;;;;;;;;4.40;99.90;;;;;;5022902;28;20006;-62
2024/01/07 04:40:51;;;;;;;;;;;4.40;99.90;;;;;;5030749;28;20511;-62
2024/01/07 04:43:16;;;;;;;;;;;4.40;99.90;;;;;;5030441;28;19914;-62
2024/01/07 04:45:42;;;;;;;;;;;4.40;99.90;;;;;;5022312;28;19985;-62
2024/01/07 04:48:07;;;;;;;;;;;4.40;99.90;;;;;;5023879;28;19920;-62
2024/01/07 04:50:33;;;;;;;;;;;4.40;99.90;;;;;;5027733;28;19913;-62
2024/01/07 04:52:58;;;;;;;;;;;4.40;99.90;;;;;;5021718;28;19913;-62
2024/01/07 04:55:24;;;;;;;;;;;4.40;99.90;;;;;;5021882;28;19973;-62
2024/01/07 04:57:50;;;;;;;;;;;4.40;99.90;;;;;;5030269;28;20007;-62
2024/01/07 05:00:16;;;;;;;;;;;4.40;99.90;;;;;;5027451;28;19924;-62
2024/01/07 05:02:41;;;;;;;;;;;4.40;99.90;;;;;;5036388;28;19909;-62
2024/01/07 05:05:10;;;;;;;;;;;4.40;99.90;;;;;;5031176;28;20026;-62
2024/01/07 05:07:37;;;;;;;;;;;4.40;99.90;;;;;;5022052;28;19924;-62
2024/01/07 05:10:03;;;;;;;;;;;4.30;99.90;;;;;;5022408;28;19917;-62
2024/01/07 05:12:28;;;;;;;;;;;4.30;99.90;;;;;;5037403;28;20011;-62
2024/01/07 05:14:54;;;;;;;;;;;4.40;99.90;;;;;;5030161;28;19996;-62
2024/01/07 05:17:19;;;;;;;;;;;4.40;99.90;;;;;;5029148;28;20661;-62
2024/01/07 05:19:45;;;;;;;;;;;4.30;99.90;;;;;;5026409;28;19913;-62
2024/01/07 05:22:10;;;;;;;;;;;4.30;99.90;;;;;;5031580;28;19912;-62
2024/01/07 05:24:39;;;;;;;;;;;4.30;99.90;;;;;;5036161;28;19913;-62
2024/01/07 05:27:05;;;;;;;;;;;4.30;99.90;;;;;;5029491;28;20276;-62
2024/01/07 05:29:33;;;;;;;;;;;4.30;99.90;;;;;;5021542;28;19937;-62
2024/01/07 05:32:00;;;;;;;;;;;4.30;99.90;;;;;;5012817;28;20259;-62
2024/01/07 05:34:26;;;;;;;;;;;4.30;99.90;;;;;;5029316;28;19924;-62
2024/01/07 05:36:51;;;;;;;;;;;4.30;99.90;;;;;;5030124;28;19909;-62
2024/01/07 05:39:17;;;;;;;;;;;4.30;99.90;;;;;;5029192;28;19935;-62
2024/01/07 05:41:42;;;;;;;;;;;4.30;99.90;;;;;;5021553;28;19917;-62
2024/01/07 05:44:08;;;;;;;;;;;4.30;99.90;;;;;;5003362;28;20032;-62
2024/01/07 05:46:34;;;;;;;;;;;4.30;99.90;;;;;;5024238;28;19920;-62
2024/01/07 05:48:59;;;;;;;;;;;4.30;99.90;;;;;;5020616;28;19913;-62
2024/01/07 05:51:25;;;;;;;;;;;4.30;99.90;;;;;;5014246;28;20433;-62
2024/01/07 05:53:50;;;;;;;;;;;4.30;99.90;;;;;;5029414;28;19968;-62
2024/01/07 05:56:16;;;;;;;;;;;4.30;99.90;;;;;;5011267;28;19948;-62
2024/01/07 05:58:41;;;;;;;;;;;4.30;99.90;;;;;;5014798;28;19949;-62
2024/01/07 06:01:08;;;;;;;;;;;4.30;99.90;;;;;;5021826;28;20309;-62
2024/01/07 06:03:33;;;;;;;;;;;4.30;99.90;;;;;;5020918;28;19962;-62
2024/01/07 06:05:59;;;;;;;;;;;4.30;99.90;;;;;;5020807;28;19913;-62
2024/01/07 06:08:25;;;;;;;;;;;4.20;99.90;;;;;;5029608;28;19940;-62
2024/01/07 06:10:51;;;;;;;;;;;4.30;99.90;;;;;;5036368;28;20089;-62
2024/01/07 06:13:16;;;;;;;;;;;4.20;99.90;;;;;;5020944;28;19925;-62
2024/01/07 06:15:42;;;;;;;;;;;4.30;99.90;;;;;;5029561;28;19913;-62
2024/01/07 06:18:07;;;;;;;;;;;4.20;99.90;;;;;;5020866;28;20057;-62
2024/01/07 06:20:33;;;;;;;;;;;4.20;99.90;;;;;;5020638;28;19913;-62
2024/01/07 06:22:58;;;;;;;;;;;4.20;99.90;;;;;;5028741;28;19909;-62
2024/01/07 06:25:26;;;;;;;;;;;4.20;99.90;;;;;;5029200;28;19978;-62
2024/01/07 06:27:51;;;;;;;;;;;4.20;99.90;;;;;;5028527;28;19912;-62
2024/01/07 06:30:19;;;;;;;;;;;4.30;99.90;;;;;;4997570;28;20282;-62
2024/01/07 06:32:45;;;;;;;;;;;4.20;99.90;;;;;;5025886;28;20015;-62
2024/01/07 06:35:10;;;;;;;;;;;4.20;99.90;;;;;;5028611;28;19917;-62
2024/01/07 06:37:36;;;;;;;;;;;4.20;99.90;;;;;;5020806;28;19958;-62
2024/01/07 06:40:02;;;;;;;;;;;4.20;99.90;;;;;;5002780;28;19917;-62
2024/01/07 06:42:27;;;;;;;;;;;4.20;99.90;;;;;;5020947;28;19920;-62
2024/01/07 06:44:53;;;;;;;;;;;4.20;99.90;;;;;;5036556;28;19923;-62
2024/01/07 06:47:18;;;;;;;;;;;4.20;99.90;;;;;;5020740;28;19999;-62
2024/01/07 06:49:45;;;;;;;;;;;4.20;99.90;;;;;;5020833;28;19954;-62
2024/01/07 06:52:10;;;;;;;;;;;4.20;99.90;;;;;;5023792;28;19919;-62
2024/01/07 06:54:36;;;;;;;;;;;4.20;99.90;;;;;;5023888;28;19913;-62
2024/01/07 06:57:02;;;;;;;;;;;4.20;99.90;;;;;;5023887;28;19921;-62
2024/01/07 06:59:28;;;;;;;;;;;4.10;99.90;;;;;;5005983;28;19920;-62
2024/01/07 07:01:55;;;;;;;;;;;4.20;99.90;;;;;;5023653;28;19929;-62
2024/01/07 07:04:20;;;;;;;;;;;4.20;99.90;;;;;;5031833;28;20350;-62
2024/01/07 07:06:47;;;;;;;;;;;4.10;99.90;;;;;;5023858;28;19916;-62
2024/01/07 07:09:12;;;;;;;;;;;4.10;99.90;;;;;;5023777;28;19985;-62
2024/01/07 07:11:38;;;;;;;;;;;4.20;99.90;;;;;;5023785;28;19940;-62
2024/01/07 07:14:03;;;;;;;;;;;4.20;99.90;;;;;;5036377;28;19916;-62
2024/01/07 07:16:29;;;;;;;;;;;4.10;99.90;;;;;;5023824;28;19954;-62
2024/01/07 07:18:54;;;;;;;;;;;4.20;99.90;;;;;;5024035;28;19913;-62
2024/01/07 07:21:20;;;;;;;;;;;4.10;99.90;;;;;;5023050;28;19970;-62
2024/01/07 07:23:45;;;;;;;;;;;4.10;99.90;;;;;;5030461;28;19965;-62
2024/01/07 07:26:11;;;;;;;;;;;4.20;99.90;;;;;;5026733;28;19920;-62
2024/01/07 07:28:36;;;;;;;;;;;4.10;99.90;;;;;;5029688;28;20330;-62
2024/01/07 07:31:02;;;;;;;;;;;4.10;99.90;;;;;;5022737;28;19956;-62
2024/01/07 07:33:27;;;;;;;;;;;4.10;99.90;;;;;;5027502;28;19916;-62
2024/01/07 07:35:53;;;;;;;;;;;4.10;99.90;;;;;;5027461;28;19913;-62
2024/01/07 07:38:18;;;;;;;;;;;4.10;99.90;;;;;;5031607;28;19951;-62
2024/01/07 07:40:46;;;;;;;;;;;4.10;99.90;;;;;;5023219;28;19913;-62
2024/01/07 07:43:12;;;;;;;;;;;4.10;99.90;;;;;;5022895;28;19917;-62
2024/01/07 07:45:37;;;;;;;;;;;4.10;99.90;;;;;;5010350;28;20239;-62
2024/01/07 07:48:03;;;;;;;;;;;4.10;99.90;;;;;;5023609;28;19920;-62
2024/01/07 07:50:29;;;;;;;;;;;4.10;99.90;;;;;;5016463;28;19913;-62
2024/01/07 07:52:54;;;;;;;;;;;4.10;99.90;;;;;;5023419;28;19920;-62
2024/01/07 07:55:20;;;;;;;;;;;4.00;99.90;;;;;;5031378;28;19917;-62
2024/01/07 07:57:46;;;;;;;;;;;4.10;99.90;;;;;;5037689;28;19913;-62
2024/01/07 08:00:12;;;;;;;;;;;4.00;99.90;;;;;;5024032;28;19984;-62
2024/01/07 08:02:38;;;;;;;;;;;4.10;99.90;;;;;;5022900;28;19917;-62
2024/01/07 08:05:04;;;;;;;;;;;4.10;99.90;;;;;;5022644;28;19974;-62
2024/01/07 08:07:30;;;;;;;;;;;4.10;99.90;;;;;;5022943;28;20429;-62
2024/01/07 08:09:57;;;;;;;;;;;4.10;99.90;;;;;;5022943;28;19920;-62
2024/01/07 08:12:23;;;;;;;;;;;4.10;99.90;;;;;;5022511;28;19993;-62
2024/01/07 08:14:48;;;;;;;;;;;4.00;99.90;;;;;;5005279;28;20403;-62
2024/01/07 08:17:14;;;;;;;;;;;4.00;99.90;;;;;;5027198;28;20438;-62
2024/01/07 08:19:39;;;;;;;;;;;4.00;99.90;;;;;;5028847;28;19920;-62
2024/01/07 08:22:05;;;;;;;;;;;4.00;99.90;;;;;;5022054;28;19913;-62
2024/01/07 08:24:30;;;;;;;;;;;4.00;99.90;;;;;;5004925;28;19928;-62
2024/01/07 08:26:56;;;;;;;;;;;4.00;99.90;;;;;;5022726;28;19916;-62
2024/01/07 08:29:21;;;;;;;;;;;4.00;99.90;;;;;;5012531;28;19973;-62
2024/01/07 08:31:47;;;;;;;;;;;4.00;99.90;;;;;;5028790;28;20255;-62
2024/01/07 08:34:13;;;;;;;;;;;4.00;99.90;;;;;;5031677;28;19917;-62
2024/01/07 08:36:38;;;;;;;;;;;4.00;99.90;;;;;;5022350;28;19913;-62
2024/01/07 08:39:04;;;;;;;;;;;4.00;99.90;;;;;;5022777;28;19920;-62
2024/01/07 08:41:29;;;;;;;;;;;4.00;99.90;;;;;;5037940;28;20449;-62
2024/01/07 08:43:55;;;;;;;;;;;4.00;99.90;;;;;;5027361;28;19917;-62
2024/01/07 08:46:21;;;;;;;;;;;4.00;99.90;;;;;;5021887;28;19924;-62
2024/01/07 08:48:47;;;;;;;;;;;4.00;99.90;;;;;;5037600;28;20775;-62
2024/01/07 08:51:12;;;;;;;;;;;4.00;99.90;;;;;;5016279;28;20016;-62
2024/01/07 08:53:38;;;;;;;;;;;4.00;99.90;;;;;;5022690;28;19917;-62
2024/01/07 08:56:03;;;;;;;;;;;4.00;99.90;;;;;;5021817;28;19913;-62
2024/01/07 08:58:29;;;;;;;;;;;3.90;99.90;;;;;;5022233;28;19920;-62
2024/01/07 09:00:54;;;;;;;;;;;4.00;99.90;;;;;;5021597;28;19938;-62
2024/01/07 09:03:20;;;;;;;;;;;3.90;99.90;;;;;;5021866;28;19958;-62
2024/01/07 09:05:46;;;;;;;;;;;3.90;99.90;;;;;;5022014;28;19912;-62
2024/01/07 09:08:14;;;;;;;;;;;4.00;99.90;;;;;;5021770;28;19944;-62
2024/01/07 09:10:40;;;;;;;;;;;4.00;99.90;;;;;;5021746;28;19966;-62
2024/01/07 09:13:05;;;;;;;;;;;3.90;99.90;;;;;;5021817;28;19913;-62
2024/01/07 09:15:31;;;;;;;;;;;3.90;99.90;;;;;;5028946;28;19917;-62
2024/01/07 09:17:57;;;;;;;;;;;3.90;99.90;;;;;;5022090;28;19924;-62
2024/01/07 09:20:22;;;;;;;;;;;3.90;99.90;;;;;;5036592;28;19959;-62
2024/01/07 09:22:48;;;;;;;;;;;3.90;99.90;;;;;;5033545;28;19917;-62
2024/01/07 09:25:13;;;;;;;;;;;4.00;99.90;;;;;;5023323;28;20063;-62
2024/01/07 09:27:39;;;;;;;;;;;4.00;99.90;;;;;;5021871;28;19924;-62
2024/01/07 09:30:05;;;;;;;;;;;3.90;99.90;;;;;;5027048;28;19928;-62
2024/01/07 09:32:31;;;;;;;;;;;3.90;99.90;;;;;;5021462;28;20419;-62
2024/01/07 09:34:57;;;;;;;;;;;3.90;99.90;;;;;;5029275;28;19912;-62
2024/01/07 09:37:23;;;;;;;;;;;4.00;99.90;;;;;;5021247;28;20000;-62
2024/01/07 09:39:49;;;;;;;;;;;3.90;99.90;;;;;;5021194;28;20391;-62
2024/01/07 09:42:15;;;;;;;;;;;3.90;99.90;;;;;;5021010;28;20358;-62
2024/01/07 09:44:42;;;;;;;;;;;3.90;99.90;;;;;;5021225;28;19917;-62
2024/01/07 09:47:11;;;;;;;;;;;3.90;99.90;;;;;;5021099;28;20012;-62
2024/01/07 09:49:37;;;;;;;;;;;3.90;99.90;;;;;;5021318;28;19923;-62
2024/01/07 09:52:03;;;;;;;;;;;3.90;99.90;;;;;;5020912;28;20295;-62
2024/01/07 09:54:29;;;;;;;;;;;3.90;99.90;;;;;;5025392;28;20354;-62
2024/01/07 09:57:00;;;;;;;;;;;3.90;99.90;;;;;;5026546;28;19986;-62
2024/01/07 09:59:26;;;;;;;;;;;3.90;99.90;;;;;;5025096;28;19967;-62
2024/01/07 10:01:52;;;;;;;;;;;3.90;99.90;;;;;;5023597;28;19942;-62
2024/01/07 10:04:18;;;;;;;;;;;3.90;99.90;;;;;;5021601;28;20653;-62
2024/01/07 10:06:43;;;;;;;;;;;3.90;99.90;;;;;;5027869;28;19948;-62
2024/01/07 10:09:11;;;;;;;;;;;3.90;99.90;;;;;;5023543;28;19913;-62
2024/01/07 10:11:36;;;;;;;;;;;3.90;99.90;;;;;;5021612;28;19981;-62
2024/01/07 10:14:02;;;;;;;;;;;3.90;99.90;;;;;;5021871;28;19943;-62
2024/01/07 10:16:28;;;;;;;;;;;3.90;99.90;;;;;;5029907;28;19996;-62
2024/01/07 10:18:53;;;;;;;;;;;3.90;99.90;;;;;;5021532;28;19924;-62
2024/01/07 10:21:19;;;;;;;;;;;3.90;99.90;;;;;;5010336;28;19921;-62
2024/01/07 10:23:44;;;;;;;;;;;3.90;99.90;;;;;;5036443;28;19913;-62
2024/01/07 10:26:10;;;;;;;;;;;3.90;99.90;;;;;;5023191;28;19982;-62
2024/01/07 10:28:36;;;;;;;;;;;3.90;99.90;;;;;;5025371;28;19913;-62
2024/01/07 10:31:03;;;;;;;;;;;3.90;99.90;;;;;;5024893;28;20011;-62
2024/01/07 10:33:34;;;;;;;;;;;3.90;99.90;;;;;;5024951;28;20021;-62
2024/01/07 10:36:05;;;;;;;;;;;3.90;99.90;;;;;;5025154;28;19935;-62
2024/01/07 10:38:31;;;;;;;;;;;3.90;99.90;;;;;;5013948;28;19914;-62
2024/01/07 10:40:58;;;;;;;;;;;3.90;99.90;;;;;;5021177;28;19969;-62
2024/01/07 10:43:26;;;;;;;;;;;3.90;99.90;;;;;;5036218;28;20291;-62
2024/01/07 10:45:52;;;;;;;;;;;3.90;99.90;;;;;;5029895;28;19913;-62
2024/01/07 10:48:19;;;;;;;;;;;3.90;99.90;;;;;;5032924;28;19952;-62
2024/01/07 10:50:50;;;;;;;;;;;3.90;99.90;;;;;;5024330;28;19994;-62
2024/01/07 10:53:21;;;;;;;;;;;3.90;99.90;;;;;;5024601;28;19913;-62
2024/01/07 10:55:52;;;;;;;;;;;3.90;99.90;;;;;;5023802;28;19995;-62
2024/01/07 10:58:19;;;;;;;;;;;3.90;99.90;;;;;;5020040;28;19955;-62
2024/01/07 11:00:45;;;;;;;;;;;3.90;99.90;;;;;;5023406;28;19920;-62
2024/01/07 11:03:14;;;;;;;;;;;3.90;99.90;;;;;;5005414;28;20381;-62
2024/01/07 11:05:43;;;;;;;;;;;3.90;99.90;;;;;;5023970;28;19913;-62
2024/01/07 11:08:32;;;;;;;;;;;3.90;99.90;;;;;;5023996;28;19913;-62
2024/01/07 11:11:00;;;;;;;;;;;3.90;99.90;;;;;;5024223;28;19953;-62
2024/01/07 11:13:33;;;;;;;;;;;3.90;99.90;;;;;;5023221;28;20003;-62
2024/01/07 11:15:59;;;;;;;;;;;3.90;99.90;;;;;;5023421;28;20328;-62
2024/01/07 11:18:29;;;;;;;;;;;3.90;99.90;;;;;;5023325;28;20028;-62
2024/01/07 11:20:58;;;;;;;;;;;3.90;99.90;;;;;;5029608;28;19948;-62
2024/01/07 11:23:34;;;;;;;;;;;3.90;99.90;;;;;;5023047;28;19913;-62
2024/01/07 11:26:00;;;;;;;;;;;3.80;99.90;;;;;;5005694;28;19920;-62
2024/01/07 11:28:44;;;;;;;;;;;3.90;99.90;;;;;;5022942;28;19920;-62
2024/01/07 11:31:10;;;;;;;;;;;3.90;99.90;;;;;;5021017;28;19928;-62
2024/01/07 11:33:38;;;;;;;;;;;3.80;99.90;;;;;;5023457;28;19913;-62
2024/01/07 11:36:04;;;;;;;;;;;3.80;99.90;;;;;;5022280;28;19933;-62
2024/01/07 11:38:30;;;;;;;;;;;3.90;99.90;;;;;;5023046;28;20447;-62
2024/01/07 11:40:56;;;;;;;;;;;3.90;99.90;;;;;;5031118;28;20519;-62
2024/01/07 11:43:22;;;;;;;;;;;3.90;99.90;;;;;;5022655;28;20631;-62
2024/01/07 11:45:49;;;;;;;;;;;3.90;99.90;;;;;;5020633;28;19913;-62
2024/01/07 11:48:15;;;;;;;;;;;3.90;99.90;;;;;;5030789;28;19916;-62
2024/01/07 11:50:41;;;;;;;;;;;3.90;99.90;;;;;;5021363;28;19913;-62
2024/01/07 11:53:08;;;;;;;;;;;3.80;99.90;;;;;;5022025;28;19928;-62
2024/01/07 11:55:35;;;;;;;;;;;3.90;99.90;;;;;;5022507;28;19917;-62
2024/01/07 11:58:02;;;;;;;;;;;3.80;99.90;;;;;;5023099;28;20405;-62
2024/01/07 12:00:27;;;;;;;;;;;3.80;99.90;;;;;;5024464;28;19912;-62
2024/01/07 12:02:53;;;;;;;;;;;3.90;99.90;;;;;;5036298;27;19917;-62
2024/01/07 12:05:18;;;;;;;;;;;3.90;99.90;;;;;;5026929;27;19917;-62
2024/01/07 12:07:44;;;;;;;;;;;3.90;99.90;;;;;;5081939;27;19961;-62
2024/01/07 12:10:13;;;;;;;;;;;3.90;99.90;;;;;;5034727;27;19913;-62
2024/01/07 12:12:42;;;;;;;;;;;3.80;99.90;;;;;;5022618;28;19924;-62
2024/01/07 12:15:08;;;;;;;;;;;3.90;99.90;;;;;;5022007;28;19917;-62
2024/01/07 12:17:33;;;;;;;;;;;3.80;99.90;;;;;;5021807;28;20362;-62
2024/01/07 12:20:00;;;;;;;;;;;3.80;99.90;;;;;;5046477;27;20696;-62
2024/01/07 12:22:27;;;;;;;;;;;3.80;99.90;;;;;;5023816;28;19917;-62
2024/01/07 12:25:05;;;;;;;;;;;3.80;99.90;;;;;;5021563;28;19935;-62
2024/01/07 12:27:31;;;;;;;;;;;3.80;99.90;;;;;;5036140;28;20048;-62
2024/01/07 12:29:57;;;;;;;;;;;3.90;99.90;;;;;;5022747;28;19921;-62
2024/01/07 12:32:22;;;;;;;;;;;3.80;99.90;;;;;;5047786;27;20202;-62
2024/01/07 12:34:48;;;;;;;;;;;3.80;99.90;;;;;;5030691;28;20254;-62
2024/01/07 12:37:14;;;;;;;;;;;3.80;99.90;;;;;;5030532;28;20349;-62
2024/01/07 12:39:40;;;;;;;;;;;3.70;99.90;;;;;;5032350;28;19919;-62
2024/01/07 12:42:07;;;;;;;;;;;3.80;99.90;;;;;;5029288;28;20574;-62
2024/01/07 12:44:32;;;;;;;;;;;3.80;99.90;;;;;;5030467;28;19917;-62
2024/01/07 12:46:58;;;;;;;;;;;3.80;99.90;;;;;;5040424;27;20680;-62
2024/01/07 12:49:23;;;;;;;;;;;3.80;99.90;;;;;;5037450;27;19921;-62
2024/01/07 12:51:49;;;;;;;;;;;3.80;99.90;;;;;;5029636;28;19928;-62
2024/01/07 12:54:14;;;;;;;;;;;3.80;99.90;;;;;;5029770;28;19924;-62
2024/01/07 12:56:40;;;;;;;;;;;3.80;99.90;;;;;;5027602;28;19993;-62
2024/01/07 12:59:05;;;;;;;;;;;3.80;99.90;;;;;;5022874;28;19952;-62
2024/01/07 13:01:31;;;;;;;;;;;3.80;99.90;;;;;;5022653;28;19909;-62
2024/01/07 13:03:57;;;;;;;;;;;3.80;99.90;;;;;;5015360;28;19910;-62
2024/01/07 13:06:22;;;;;;;;;;;3.80;99.90;;;;;;5025031;27;20001;-62
2024/01/07 13:08:48;;;;;;;;;;;3.80;99.90;;;;;;5047353;27;20285;-62
2024/01/07 13:11:15;;;;;;;;;;;3.80;99.90;;;;;;5064145;27;19915;-62
2024/01/07 13:13:40;;;;;;;;;;;3.80;99.90;;;;;;5062757;27;19974;-62
2024/01/07 13:16:06;;;;;;;;;;;3.80;99.90;;;;;;5058521;27;20008;-62
2024/01/07 13:18:31;;;;;;;;;;;3.80;99.90;;;;;;5025541;28;20385;-62
2024/01/07 13:20:57;;;;;;;;;;;3.80;99.90;;;;;;5022596;28;19913;-62
2024/01/07 13:23:22;;;;;;;;;;;3.80;99.90;;;;;;5024639;28;20000;-62
2024/01/07 13:25:48;;;;;;;;;;;3.80;99.90;;;;;;5021979;28;19920;-62
2024/01/07 13:28:13;;;;;;;;;;;3.80;99.90;;;;;;5021100;28;19914;-62
2024/01/07 13:30:40;;;;;;;;;;;3.80;99.90;;;;;;5020789;28;19928;-62
2024/01/07 13:33:05;;;;;;;;;;;3.80;99.90;;;;;;5023457;28;19917;-62
2024/01/07 13:35:31;;;;;;;;;;;3.80;99.90;;;;;;5019073;28;20387;-62
2024/01/07 13:37:58;;;;;;;;;;;3.70;99.90;;;;;;5020803;28;21367;-62
2024/01/07 13:40:24;;;;;;;;;;;3.70;99.90;;;;;;5015974;28;19990;-62
2024/01/07 13:42:50;;;;;;;;;;;3.70;99.90;;;;;;5021059;28;20012;-62
2024/01/07 13:45:19;;;;;;;;;;;3.80;99.90;;;;;;5005997;28;19928;-62
2024/01/07 13:47:45;;;;;;;;;;;3.70;99.90;;;;;;5020501;28;19921;-62
2024/01/07 13:50:11;;;;;;;;;;;3.80;99.90;;;;;;5019333;28;19986;-62
2024/01/07 13:52:36;;;;;;;;;;;3.80;99.90;;;;;;5021198;28;19920;-62
2024/01/07 13:55:02;;;;;;;;;;;3.80;99.90;;;;;;5021382;28;19921;-62
2024/01/07 13:57:30;;;;;;;;;;;3.70;99.90;;;;;;5022261;28;19999;-62
2024/01/07 13:59:56;;;;;;;;;;;3.70;99.90;;;;;;5020960;28;19978;-62
2024/01/07 14:02:22;;;;;;;;;;;3.80;99.90;;;;;;5020811;28;20357;-62
2024/01/07 14:04:48;;;;;;;;;;;3.70;99.90;;;;;;5021687;28;19913;-62
2024/01/07 14:07:13;;;;;;;;;;;3.70;99.90;;;;;;5020959;28;20265;-62
2024/01/07 14:09:39;;;;;;;;;;;3.70;99.90;;;;;;5020902;28;20004;-62
2024/01/07 14:12:04;;;;;;;;;;;3.70;99.90;;;;;;5020559;28;19920;-62
2024/01/07 14:14:30;;;;;;;;;;;3.70;99.90;;;;;;5041218;27;19917;-62
2024/01/07 14:16:55;;;;;;;;;;;3.70;99.90;;;;;;5018782;28;19936;-62
2024/01/07 14:19:21;;;;;;;;;;;3.70;99.90;;;;;;5020526;28;19959;-62
2024/01/07 14:21:47;;;;;;;;;;;3.70;99.90;;;;;;5020686;28;19918;-62
2024/01/07 14:24:13;;;;;;;;;;;3.70;99.90;;;;;;5020625;28;19913;-62